METAR Data
IDs: Format: Raw Decoded Include TAF

Data at: 0232 UTC 25 Jan 2020

PAPG 250156Z 23004KT 10SM FEW024 03/02 A2950 RMK AO2 RAE17UPB35E40 SLPNO P0000 T00330024 $
PAPG 250120Z 22005KT 10SM FEW023 BKN048 OVC055 A2948 RMK AO2 RAE17 P0000 $
PAPG 250056Z 21008KT 9SM -RA SCT013 BKN026 BKN031 04/03 A2947 RMK AO2 UPB06E12RAB12SNB42E52 SLPNO P0001 T00360025 $
PAPG 250018Z 00000KT 10SM -RA FEW008 BKN021 OVC035 A2945 RMK AO2 UPB06E12RAB12 P0000 $
PAPG 242356Z 00000KT 10SM SCT009 SCT041 BKN050 03/02 A2944 RMK AO2 UPB2259E00RAB00E52 SLPNO P0000 60030 T00340020 53018 $
PAPG 242256Z 00000KT 8SM SCT005 BKN017 OVC025 03/02 A2941 RMK AO2 RAE27SNE27 SLPNO P0001 T00250020 $
PAPG 242156Z 00000KT 10SM -RASN SCT004 BKN015 OVC033 02/02 A2939 RMK AO2 SNB52 SLPNO P0001 T00200020 $
PAPG 242153Z 00000KT 10SM -RASN SCT004 BKN018 OVC033 02/02 A2939 RMK AO2 SNB52 P0001 $
PAPG 242145Z 25003KT 10SM -RA SCT004 SCT017 OVC033 A2938 RMK AO2 P0001 $
PAPG 242056Z 29003KT 10SM -RA FEW026 OVC038 03/02 A2936 RMK AO2 SNE35 SLPNO P0002 60028 T00300020 51027 $
PAPG 242052Z 26003KT 10SM -RA FEW018 SCT026 OVC036 03/02 A2936 RMK AO2 SNE35 P0002 $
PAPG 241956Z 28009KT 10SM -RASN FEW014 OVC020 03/02 A2932 RMK AO2 SNB04 SLPNO P0011 T00250020 $
PAPG 241856Z 25008KT 5SM RA BR SCT015 BKN024 OVC033 04/03 A2928 RMK AO2 SLPNO P0015 T00400030 $
PAPG 241756Z 25004KT 9SM -RA FEW017 BKN027 OVC037 04/03 A2923 RMK AO2 SLPNO P0006 6//// T00400030 $
PAPG 241656Z 00000KT 10SM -RA BKN023 BKN033 OVC050 04/03 A2922 RMK AO2 RAB16 SLPNO T00400030 $
PAPG 241632Z 00000KT 7SM -RA BKN023 OVC028 04/03 A2922 RMK AO2 RAB16 $
PAPG 241556Z VRB04KT 7SM RA BKN023 OVC028 04/03 A2924 RMK AO2 SLP904 P0016 T00400030 $
PAPG 241456Z COR 14010G15KT 9SM -RA SCT019 BKN024 OVC044 04/03 A2926 RMK AO2 UPB04E09 SLPNO P0004 6//// FZRANO $
PAPG 241445Z AUTO VRB04KT 10SM -RA BKN021 OVC046 A2926 RMK AO2 UPB04E09 P0002 FZRANO $
PAPG 241436Z AUTO VRB03G14KT 10SM -RA SCT022 OVC046 A2926 RMK AO2 UPB04E09 P0002 FZRANO $
PAPG 241410Z AUTO VRB03KT 10SM -RA SCT020 BKN025 OVC048 A2928 RMK AO2 UPB04E09 P0000 FZRANO $
PAPG 241356Z AUTO VRB03KT 10SM -RA SCT024 OVC046 A2928 RMK AO2 SLPNO FZRANO $
PAPG 241256Z AUTO 10SM -RA 04/02 RMK AO2 SLPNO P0002 T00440022 $
PAPG 241247Z AUTO 16007G17KT 10SM -RA FEW017 BKN023 OVC044 04/03 A2932 RMK AO2 P0001
PAPG 241225Z AUTO 09005KT 10SM -RA FEW005 SCT021 OVC046 04/03 A2933 RMK AO2 P0001
PAPG 241210Z AUTO 00000KT 10SM -RA SCT003 BKN021 OVC046 03/03 A2934 RMK AO2 P0000
PAPG 241207Z AUTO 00000KT 9SM -RA BKN003 BKN009 OVC046 02/02 A2934 RMK AO2 P0000 FZRANO
PAPG 241156Z AUTO VRB03KT 10SM -RA OVC005 02/02 A2934 RMK AO2 SLP940 P0004 60026 70079 T00220022 10028 20011 58021 FZRANO
PAPG 241133Z AUTO 00000KT 4SM -RA BR BKN005 BKN013 OVC022 02/02 A2935 RMK AO2 CIG 004V008 P0003 FZRANO
PAPG 241122Z AUTO 00000KT 8SM -RA SCT008 OVC019 02/02 A2936 RMK AO2 P0002 FZRANO
PAPG 241056Z AUTO 00000KT 9SM -RA OVC019 02/02 A2937 RMK AO2 SLP948 P0002 T00170017 FZRANO
PAPG 240956Z AUTO 26003KT 5SM -RA BR OVC019 02/02 A2939 RMK AO2 SLP954 P0005 T00170017 FZRANO
PAPG 240948Z AUTO 27004KT 3SM -RA BR OVC019 02/02 A2939 RMK AO2 P0004 FZRANO
PAPG 240938Z AUTO 27004KT 1 3/4SM -RA BR BKN019 OVC025 02/02 A2939 RMK AO2 P0004 FZRANO
PAPG 240856Z AUTO 00000KT 10SM -RA FEW006 OVC017 02/02 A2941 RMK AO2 SLP961 P0006 60015 T00220022 400560011 58010 FZRANO
PAPG 240846Z AUTO 00000KT 10SM -RA FEW006 SCT011 OVC019 02/02 A2941 RMK AO2 P0005 FZRANO
PAPG 240756Z AUTO 25003KT 10SM -RA BKN023 OVC029 02/02 A2941 RMK AO2 SLP964 P0005 T00170017 FZRANO
PAPG 240723Z AUTO 24003KT 9SM -RA BKN023 OVC033 02/02 A2942 RMK AO2 P0002 FZRANO
PAPG 240656Z AUTO 20003KT 10SM -RA FEW017 OVC032 02/02 A2943 RMK AO2 SLP968 P0004 T00220022 FZRANO
PAPG 240646Z 00000KT 9SM -RA SCT019 SCT027 OVC032 03/02 A2943 RMK AO2 P0004
PAPG 240556Z 27005KT 1 1/4SM -RA BR FEW004 BKN022 OVC030 02/02 A2944 RMK AO2 SLP971 P0005 60011 T00220022 10044 20017 58008
PAPG 240533Z 00000KT 1 1/4SM -RA BR BKN025 OVC032 02/02 A2944 RMK AO2 P0004
PAPG 240456Z 00000KT 1 3/4SM -RA BR OVC032 02/02 A2946 RMK AO2 SLP978 P0004 T00220022
PAPG 240356Z 00000KT 5SM -RA BR FEW021 BKN042 OVC050 02/02 A2946 RMK AO2 UPB24E26RAB26 SLP980 P0001 T00220022
PAPG 240354Z 00000KT 4SM -RA BR FEW023 BKN042 OVC050 02/02 A2946 RMK AO2 UPB24E26RAB26 P0001
PAPG 240256Z 00000KT 10SM BKN025 OVC032 03/02 A2947 RMK AO2 SLP982 60001 T00280022 50001
PAPG 240156Z 00000KT 10SM SCT012 BKN025 04/03 A2948 RMK AO2 RAE01 SLP985 P0000 T00390033
PAPG 240133Z 00000KT 10SM SCT008 BKN027 03/03 A2948 RMK AO2 RAE01 P0000
PAPG 240056Z 00000KT 10SM -RA SCT012 BKN029 04/03 A2948 RMK AO2 RAB13 SLP985 P0001 T00390033
PAPG 232356Z 00000KT 10SM BKN029 OVC033 04/03 A2946 RMK AO2 RAE46 SLP981 P0000 60013 T00440033 10050 20017 53009
PAPG 232256Z 01005KT 10SM -RA BKN022 OVC028 04/04 A2945 RMK AO2 SLP975 P0000 T00440039
PAPG 232156Z 00000KT 9SM -RA SCT017 BKN028 OVC036 04/03 A2944 RMK AO2 SLP972 P0005 T00390033
PAPG 232154Z 00000KT 9SM -RA SCT017 BKN028 OVC036 04/03 A2944 RMK AO2 P0005
PAPG 232136Z 00000KT 10SM -RA FEW025 BKN030 OVC036 04/03 A2943 RMK AO2 P0004
PAPG 232056Z 24003KT 10SM -RA FEW007 BKN021 OVC027 03/03 A2942 RMK AO2 SLP967 P0002 60008 T00330033 51020
PAPG 232026Z 00000KT 10SM -RA FEW009 BKN021 OVC027 03/03 A2941 RMK AO2 P0001
PAPG 232010Z 00000KT -RA 03/03 A2941 RMK AO2 P0000
PAPG 232003Z 3SM -RA BR BKN020 OVC027 03/03 RMK AO2 P0000 $
PAPG 231956Z 24003KT 1 1/4SM -RA BR BKN021 OVC028 02/02 A2941 RMK AO2 SLP962 P0003 T00220022
PAPG 231941Z 25003KT 1 1/2SM -RA BR BKN017 OVC023 02/02 A2941 RMK AO2 VIS 1V2 1/2 P0002
PAPG 231925Z 25005KT 2 1/2SM -RA BR BKN019 OVC024 03/03 A2940 RMK AO2 P0001
PAPG 231856Z 25003KT 4SM -RA BR BKN019 OVC024 03/03 A2939 RMK AO2 SLP955 P0003 T00280028
PAPG 231815Z 00000KT 10SM -RA BKN024 OVC031 03/03 A2937 RMK AO2 P0001
PAPG 231803Z 23003KT 10SM -RA 03/03 A2937 RMK AO2 P0000
PAPG 231756Z 18003KT 10SM -RA OVC021 02/01 A2936 RMK AO2 SLP946 P0003 60029 T00170011 10056 20017 53022
PAPG 231656Z 00000KT 10SM -RA OVC021 03/03 A2934 RMK AO2 SLP939 P0003 T00330028
PAPG 231556Z 23005KT 10SM -RA BKN025 OVC034 03/02 A2931 RMK AO2 SLP930 P0008 T00330022
PAPG 231456Z AUTO 07003KT 9SM -RA BKN019 OVC023 04/02 A2930 RMK AO2 SLP925 P0002 60015 T00390022 51010